sensor_id;sensor_type;location;lat;lon;timestamp;pressure;altitude;pressure_sealevel;temperature;humidity
53514;BME280;39768;54.148;12.174;2023-08-12T00:02:31;101797.03;;;18.44;74.38
53514;BME280;39768;54.148;12.174;2023-08-12T00:06:34;101790.75;;;18.25;75.86
53514;BME280;39768;54.148;12.174;2023-08-12T00:10:36;101792.78;;;18.38;74.78
53514;BME280;39768;54.148;12.174;2023-08-12T00:14:37;101782.59;;;18.43;75.19
53514;BME280;39768;54.148;12.174;2023-08-12T00:18:39;101792.94;;;18.16;77.25
53514;BME280;39768;54.148;12.174;2023-08-12T00:22:40;101785.75;;;17.98;78.34
53514;BME280;39768;54.148;12.174;2023-08-12T00:26:42;101788.59;;;18.14;77.62
53514;BME280;39768;54.148;12.174;2023-08-12T00:30:44;101787.03;;;18.27;76.36
53514;BME280;39768;54.148;12.174;2023-08-12T00:34:45;101780.59;;;17.73;79.68
53514;BME280;39768;54.148;12.174;2023-08-12T00:38:47;101775.69;;;17.44;82.40
53514;BME280;39768;54.148;12.174;2023-08-12T00:42:49;101768.88;;;17.73;82.01
53514;BME280;39768;54.148;12.174;2023-08-12T00:46:50;101767.81;;;17.77;79.23
53514;BME280;39768;54.148;12.174;2023-08-12T00:50:52;101754.03;;;17.63;82.10
53514;BME280;39768;54.148;12.174;2023-08-12T00:54:54;101757.25;;;17.33;84.83
53514;BME280;39768;54.148;12.174;2023-08-12T00:58:58;101748.88;;;17.96;78.79
53514;BME280;39768;54.148;12.174;2023-08-12T01:03:01;101744.41;;;17.95;78.82
53514;BME280;39768;54.148;12.174;2023-08-12T01:07:05;101753.88;;;17.47;82.25
53514;BME280;39768;54.148;12.174;2023-08-12T01:11:22;101742.13;;;17.85;80.07
53514;BME280;39768;54.148;12.174;2023-08-12T01:15:27;101744.47;;;17.37;82.50
53514;BME280;39768;54.148;12.174;2023-08-12T01:19:35;101743.94;;;17.47;82.79
53514;BME280;39768;54.148;12.174;2023-08-12T01:23:37;101740.75;;;17.77;80.62
53514;BME280;39768;54.148;12.174;2023-08-12T01:27:40;101741.56;;;17.79;81.62
53514;BME280;39768;54.148;12.174;2023-08-12T01:31:47;101737.69;;;17.84;79.91
53514;BME280;39768;54.148;12.174;2023-08-12T01:36:09;101736.59;;;18.06;78.16
53514;BME280;39768;54.148;12.174;2023-08-12T01:40:15;101739.47;;;18.03;78.21
53514;BME280;39768;54.148;12.174;2023-08-12T01:44:17;101738.81;;;17.60;80.47
53514;BME280;39768;54.148;12.174;2023-08-12T01:48:19;101737.69;;;17.84;79.23
53514;BME280;39768;54.148;12.174;2023-08-12T01:52:24;101723.78;;;18.09;77.84
53514;BME280;39768;54.148;12.174;2023-08-12T01:56:26;101719.13;;;17.75;78.89
53514;BME280;39768;54.148;12.174;2023-08-12T02:00:27;101717.31;;;17.76;80.36
53514;BME280;39768;54.148;12.174;2023-08-12T02:04:30;101712.94;;;17.55;80.49
53514;BME280;39768;54.148;12.174;2023-08-12T02:08:32;101714.94;;;18.06;78.53
53514;BME280;39768;54.148;12.174;2023-08-12T02:12:34;101696.56;;;17.76;80.86
53514;BME280;39768;54.148;12.174;2023-08-12T02:16:44;101694.50;;;17.81;79.79
53514;BME280;39768;54.148;12.174;2023-08-12T02:20:47;101690.09;;;17.60;81.72
53514;BME280;39768;54.148;12.174;2023-08-12T02:24:49;101679.31;;;17.23;83.48
53514;BME280;39768;54.148;12.174;2023-08-12T02:28:51;101685.28;;;17.29;81.86
53514;BME280;39768;54.148;12.174;2023-08-12T02:32:53;101681.88;;;17.99;78.60
53514;BME280;39768;54.148;12.174;2023-08-12T02:36:54;101677.16;;;17.67;80.15
53514;BME280;39768;54.148;12.174;2023-08-12T02:40:56;101669.53;;;17.94;76.80
53514;BME280;39768;54.148;12.174;2023-08-12T02:44:58;101661.22;;;17.79;79.95
53514;BME280;39768;54.148;12.174;2023-08-12T02:49:01;101660.78;;;17.70;79.92
53514;BME280;39768;54.148;12.174;2023-08-12T02:53:04;101662.41;;;17.91;77.29
53514;BME280;39768;54.148;12.174;2023-08-12T02:57:05;101664.19;;;17.73;79.43
53514;BME280;39768;54.148;12.174;2023-08-12T03:01:07;101654.03;;;17.78;79.49
53514;BME280;39768;54.148;12.174;2023-08-12T03:05:09;101659.38;;;17.80;79.22
53514;BME280;39768;54.148;12.174;2023-08-12T03:09:11;101651.75;;;17.88;78.38
53514;BME280;39768;54.148;12.174;2023-08-12T03:13:15;101645.16;;;17.75;79.12
53514;BME280;39768;54.148;12.174;2023-08-12T03:17:17;101636.84;;;17.79;79.39
53514;BME280;39768;54.148;12.174;2023-08-12T03:21:19;101632.47;;;17.77;78.38
53514;BME280;39768;54.148;12.174;2023-08-12T03:25:22;101634.00;;;17.82;78.02
53514;BME280;39768;54.148;12.174;2023-08-12T03:29:24;101628.66;;;17.81;78.38
53514;BME280;39768;54.148;12.174;2023-08-12T03:33:27;101623.97;;;17.84;78.51
53514;BME280;39768;54.148;12.174;2023-08-12T03:37:30;101617.69;;;17.65;78.45
53514;BME280;39768;54.148;12.174;2023-08-12T03:41:32;101610.25;;;17.88;77.86
53514;BME280;39768;54.148;12.174;2023-08-12T03:45:42;101602.13;;;17.88;78.04
53514;BME280;39768;54.148;12.174;2023-08-12T03:49:46;101595.31;;;17.62;79.08
53514;BME280;39768;54.148;12.174;2023-08-12T03:53:49;101593.97;;;17.70;78.77
53514;BME280;39768;54.148;12.174;2023-08-12T03:57:51;101588.44;;;17.72;78.80
53514;BME280;39768;54.148;12.174;2023-08-12T04:01:54;101580.44;;;17.70;77.92
53514;BME280;39768;54.148;12.174;2023-08-12T04:05:56;101579.41;;;17.37;79.86
53514;BME280;39768;54.148;12.174;2023-08-12T04:09:58;101578.72;;;17.50;78.03
53514;BME280;39768;54.148;12.174;2023-08-12T04:14:00;101581.97;;;17.40;79.28
53514;BME280;39768;54.148;12.174;2023-08-12T04:18:01;101580.94;;;17.78;76.10
53514;BME280;39768;54.148;12.174;2023-08-12T04:22:04;101585.25;;;17.82;77.27
53514;BME280;39768;54.148;12.174;2023-08-12T04:26:08;101578.50;;;17.55;77.50
53514;BME280;39768;54.148;12.174;2023-08-12T04:30:10;101573.63;;;17.80;77.11
53514;BME280;39768;54.148;12.174;2023-08-12T04:34:12;101561.59;;;17.86;77.04
53514;BME280;39768;54.148;12.174;2023-08-12T04:38:13;101560.16;;;17.79;77.25
53514;BME280;39768;54.148;12.174;2023-08-12T04:42:18;101559.88;;;17.85;77.91
53514;BME280;39768;54.148;12.174;2023-08-12T04:46:20;101554.97;;;18.26;74.70
53514;BME280;39768;54.148;12.174;2023-08-12T04:50:22;101559.28;;;17.96;78.40
53514;BME280;39768;54.148;12.174;2023-08-12T04:54:24;101554.53;;;18.51;73.02
53514;BME280;39768;54.148;12.174;2023-08-12T04:58:26;101567.34;;;18.80;69.32
53514;BME280;39768;54.148;12.174;2023-08-12T05:02:28;101561.97;;;19.28;66.75
53514;BME280;39768;54.148;12.174;2023-08-12T05:06:30;101566.81;;;18.58;71.72
53514;BME280;39768;54.148;12.174;2023-08-12T05:10:32;101564.03;;;18.42;72.24
53514;BME280;39768;54.148;12.174;2023-08-12T05:14:34;101560.72;;;18.86;70.98
53514;BME280;39768;54.148;12.174;2023-08-12T05:18:36;101554.16;;;18.74;71.93
53514;BME280;39768;54.148;12.174;2023-08-12T05:22:38;101548.47;;;19.10;69.47
53514;BME280;39768;54.148;12.174;2023-08-12T05:26:40;101551.63;;;18.87;71.33
53514;BME280;39768;54.148;12.174;2023-08-12T05:30:42;101547.34;;;18.83;72.02
53514;BME280;39768;54.148;12.174;2023-08-12T05:34:43;101554.69;;;19.44;68.35
53514;BME280;39768;54.148;12.174;2023-08-12T05:38:45;101546.00;;;19.21;70.86
53514;BME280;39768;54.148;12.174;2023-08-12T05:42:47;101557.41;;;19.12;69.59
53514;BME280;39768;54.148;12.174;2023-08-12T05:46:48;101553.91;;;18.95;73.15
53514;BME280;39768;54.148;12.174;2023-08-12T05:50:50;101554.09;;;19.23;70.11
53514;BME280;39768;54.148;12.174;2023-08-12T05:54:52;101557.16;;;19.01;71.48
53514;BME280;39768;54.148;12.174;2023-08-12T05:58:53;101554.34;;;18.87;72.11
53514;BME280;39768;54.148;12.174;2023-08-12T06:02:55;101559.09;;;19.31;71.21
53514;BME280;39768;54.148;12.174;2023-08-12T06:06:56;101558.53;;;19.55;68.41
53514;BME280;39768;54.148;12.174;2023-08-12T06:10:58;101547.06;;;19.35;70.35
53514;BME280;39768;54.148;12.174;2023-08-12T06:15:01;101544.63;;;19.46;69.90
53514;BME280;39768;54.148;12.174;2023-08-12T06:19:02;101540.97;;;19.31;70.96
53514;BME280;39768;54.148;12.174;2023-08-12T06:23:04;101542.16;;;19.57;71.60
53514;BME280;39768;54.148;12.174;2023-08-12T06:27:06;101545.97;;;19.23;73.94
53514;BME280;39768;54.148;12.174;2023-08-12T06:31:07;101543.81;;;19.89;70.95
53514;BME280;39768;54.148;12.174;2023-08-12T06:35:09;101528.28;;;20.36;67.30
53514;BME280;39768;54.148;12.174;2023-08-12T06:39:11;101530.41;;;20.59;66.25
53514;BME280;39768;54.148;12.174;2023-08-12T06:43:13;101527.00;;;20.55;66.07
53514;BME280;39768;54.148;12.174;2023-08-12T06:47:14;101529.88;;;19.95;69.58
53514;BME280;39768;54.148;12.174;2023-08-12T06:51:16;101532.75;;;20.51;67.29
53514;BME280;39768;54.148;12.174;2023-08-12T06:55:18;101520.31;;;20.61;65.93
53514;BME280;39768;54.148;12.174;2023-08-12T06:59:19;101521.06;;;21.32;62.89
53514;BME280;39768;54.148;12.174;2023-08-12T07:03:22;101521.69;;;21.50;62.42
53514;BME280;39768;54.148;12.174;2023-08-12T07:07:24;101528.19;;;21.21;63.14
53514;BME280;39768;54.148;12.174;2023-08-12T07:11:25;101526.59;;;21.04;62.75
53514;BME280;39768;54.148;12.174;2023-08-12T07:15:27;101512.28;;;21.27;63.76
53514;BME280;39768;54.148;12.174;2023-08-12T07:19:29;101520.53;;;21.67;61.21
53514;BME280;39768;54.148;12.174;2023-08-12T07:23:30;101516.28;;;22.15;59.38
53514;BME280;39768;54.148;12.174;2023-08-12T07:27:32;101517.13;;;22.41;57.45
53514;BME280;39768;54.148;12.174;2023-08-12T07:31:34;101520.03;;;22.89;57.54
53514;BME280;39768;54.148;12.174;2023-08-12T07:35:36;101545.47;;;23.26;56.05
53514;BME280;39768;54.148;12.174;2023-08-12T07:39:37;101528.38;;;22.62;56.36
53514;BME280;39768;54.148;12.174;2023-08-12T07:43:39;101522.72;;;23.01;54.38
53514;BME280;39768;54.148;12.174;2023-08-12T07:47:41;101520.56;;;23.65;53.63
53514;BME280;39768;54.148;12.174;2023-08-12T07:51:42;101522.69;;;23.38;54.38
53514;BME280;39768;54.148;12.174;2023-08-12T07:55:44;101513.34;;;23.29;53.18
53514;BME280;39768;54.148;12.174;2023-08-12T07:59:46;101520.63;;;23.41;54.88
53514;BME280;39768;54.148;12.174;2023-08-12T08:03:47;101512.16;;;23.33;55.13
53514;BME280;39768;54.148;12.174;2023-08-12T13:41:20;101209.50;;;27.73;44.17
53514;BME280;39768;54.148;12.174;2023-08-12T13:45:22;101209.84;;;27.50;43.76
53514;BME280;39768;54.148;12.174;2023-08-12T13:49:25;101210.59;;;28.07;44.67
53514;BME280;39768;54.148;12.174;2023-08-12T13:53:26;101206.31;;;27.95;44.31
53514;BME280;39768;54.148;12.174;2023-08-12T13:57:28;101197.72;;;28.08;43.59
53514;BME280;39768;54.148;12.174;2023-08-12T14:01:30;101199.69;;;27.33;44.89
53514;BME280;39768;54.148;12.174;2023-08-12T14:05:32;101191.69;;;26.83;45.27
53514;BME280;39768;54.148;12.174;2023-08-12T14:13:51;101195.03;;;26.58;47.10
53514;BME280;39768;54.148;12.174;2023-08-12T14:18:13;101185.19;;;26.17;47.62
53514;BME280;39768;54.148;12.174;2023-08-12T14:22:35;101175.81;;;26.19;47.93
53514;BME280;39768;54.148;12.174;2023-08-12T14:26:57;101181.69;;;25.96;47.82
53514;BME280;39768;54.148;12.174;2023-08-12T14:31:18;101171.63;;;26.44;47.63
53514;BME280;39768;54.148;12.174;2023-08-12T14:35:40;101171.31;;;26.57;47.48
53514;BME280;39768;54.148;12.174;2023-08-12T14:39:59;101168.16;;;26.23;47.64
53514;BME280;39768;54.148;12.174;2023-08-12T14:44:01;101175.28;;;25.76;49.45
53514;BME280;39768;54.148;12.174;2023-08-12T14:48:02;101170.06;;;25.73;50.21
53514;BME280;39768;54.148;12.174;2023-08-12T14:52:04;101171.81;;;25.74;50.95
53514;BME280;39768;54.148;12.174;2023-08-12T14:56:06;101179.63;;;25.48;52.26
53514;BME280;39768;54.148;12.174;2023-08-12T15:00:09;101180.88;;;25.65;51.99
53514;BME280;39768;54.148;12.174;2023-08-12T15:04:12;101188.13;;;25.45;53.85
53514;BME280;39768;54.148;12.174;2023-08-12T15:08:13;101190.09;;;25.33;63.42
53514;BME280;39768;54.148;12.174;2023-08-12T15:12:15;101188.81;;;24.33;70.61
53514;BME280;39768;54.148;12.174;2023-08-12T15:16:16;101202.63;;;24.32;73.61
53514;BME280;39768;54.148;12.174;2023-08-12T15:20:18;101201.00;;;24.29;76.26
53514;BME280;39768;54.148;12.174;2023-08-12T15:24:20;101196.13;;;24.44;74.42
53514;BME280;39768;54.148;12.174;2023-08-12T15:28:21;101194.34;;;24.96;73.63
53514;BME280;39768;54.148;12.174;2023-08-12T15:32:23;101192.81;;;25.54;70.77
53514;BME280;39768;54.148;12.174;2023-08-12T15:36:25;101187.78;;;25.59;68.85
53514;BME280;39768;54.148;12.174;2023-08-12T15:40:27;101185.22;;;25.77;68.47
53514;BME280;39768;54.148;12.174;2023-08-12T15:44:28;101169.25;;;25.82;64.47
53514;BME280;39768;54.148;12.174;2023-08-12T15:48:30;101163.16;;;25.69;64.46
53514;BME280;39768;54.148;12.174;2023-08-12T15:52:31;101149.00;;;25.64;64.38
53514;BME280;39768;54.148;12.174;2023-08-12T15:56:35;101147.09;;;25.55;64.49
53514;BME280;39768;54.148;12.174;2023-08-12T16:00:38;101147.97;;;24.73;66.51
53514;BME280;39768;54.148;12.174;2023-08-12T16:04:44;101158.50;;;24.99;66.52
53514;BME280;39768;54.148;12.174;2023-08-12T16:08:46;101162.09;;;25.20;63.35
53514;BME280;39768;54.148;12.174;2023-08-12T16:13:05;101152.50;;;25.05;63.69
53514;BME280;39768;54.148;12.174;2023-08-12T16:17:07;101139.94;;;25.02;62.28
53514;BME280;39768;54.148;12.174;2023-08-12T16:21:10;101140.16;;;25.20;60.41
53514;BME280;39768;54.148;12.174;2023-08-12T16:25:12;101135.41;;;25.12;60.74
53514;BME280;39768;54.148;12.174;2023-08-12T16:29:13;101143.41;;;25.35;60.62
53514;BME280;39768;54.148;12.174;2023-08-12T16:33:15;101165.31;;;25.35;61.59
53514;BME280;39768;54.148;12.174;2023-08-12T16:37:17;101148.31;;;24.27;62.96
53514;BME280;39768;54.148;12.174;2023-08-12T16:41:22;101143.84;;;23.94;67.06
53514;BME280;39768;54.148;12.174;2023-08-12T16:45:23;101143.31;;;23.57;70.55
53514;BME280;39768;54.148;12.174;2023-08-12T16:49:26;101146.91;;;23.13;76.43
53514;BME280;39768;54.148;12.174;2023-08-12T16:53:28;101136.72;;;22.47;81.66
53514;BME280;39768;54.148;12.174;2023-08-12T16:57:30;101127.41;;;22.38;81.71
53514;BME280;39768;54.148;12.174;2023-08-12T17:01:32;101133.00;;;22.48;83.39
53514;BME280;39768;54.148;12.174;2023-08-12T17:05:33;101121.91;;;22.16;84.71
53514;BME280;39768;54.148;12.174;2023-08-12T17:09:35;101112.94;;;22.49;84.44
53514;BME280;39768;54.148;12.174;2023-08-12T17:13:36;101120.22;;;22.37;83.28
53514;BME280;39768;54.148;12.174;2023-08-12T17:17:38;101108.38;;;21.66;86.16
53514;BME280;39768;54.148;12.174;2023-08-12T17:21:40;101117.25;;;21.81;86.16
53514;BME280;39768;54.148;12.174;2023-08-12T17:25:41;101119.66;;;21.73;87.09
53514;BME280;39768;54.148;12.174;2023-08-12T17:29:43;101130.91;;;21.19;90.90
53514;BME280;39768;54.148;12.174;2023-08-12T17:33:45;101124.88;;;20.78;94.01
53514;BME280;39768;54.148;12.174;2023-08-12T17:37:46;101119.09;;;20.95;95.43
53514;BME280;39768;54.148;12.174;2023-08-12T17:41:48;101133.31;;;21.24;94.40
53514;BME280;39768;54.148;12.174;2023-08-12T17:45:49;101138.75;;;21.24;91.90
53514;BME280;39768;54.148;12.174;2023-08-12T17:49:51;101138.50;;;21.27;93.27
53514;BME280;39768;54.148;12.174;2023-08-12T17:53:53;101138.44;;;21.28;93.08
53514;BME280;39768;54.148;12.174;2023-08-12T17:57:55;101120.28;;;20.78;94.75
53514;BME280;39768;54.148;12.174;2023-08-12T18:01:56;101121.34;;;21.26;92.89
53514;BME280;39768;54.148;12.174;2023-08-12T18:05:58;101125.56;;;21.30;91.23
53514;BME280;39768;54.148;12.174;2023-08-12T18:09:59;101133.97;;;21.02;92.73
53514;BME280;39768;54.148;12.174;2023-08-12T18:14:01;101119.13;;;20.30;98.72
53514;BME280;39768;54.148;12.174;2023-08-12T18:18:03;101124.53;;;20.95;95.29
53514;BME280;39768;54.148;12.174;2023-08-12T18:22:04;101135.28;;;21.09;92.74
53514;BME280;39768;54.148;12.174;2023-08-12T18:26:06;101129.59;;;21.12;93.53
53514;BME280;39768;54.148;12.174;2023-08-12T18:30:08;101129.50;;;21.14;92.97
53514;BME280;39768;54.148;12.174;2023-08-12T18:34:09;101132.91;;;20.92;93.73
53514;BME280;39768;54.148;12.174;2023-08-12T18:38:11;101139.41;;;21.02;93.63
53514;BME280;39768;54.148;12.174;2023-08-12T18:42:12;101147.16;;;20.70;94.41
53514;BME280;39768;54.148;12.174;2023-08-12T18:46:14;101148.78;;;20.98;92.27
53514;BME280;39768;54.148;12.174;2023-08-12T18:50:16;101159.44;;;21.01;93.14
53514;BME280;39768;54.148;12.174;2023-08-12T18:54:18;101158.91;;;20.83;95.21
53514;BME280;39768;54.148;12.174;2023-08-12T18:58:20;101175.88;;;20.99;94.11
53514;BME280;39768;54.148;12.174;2023-08-12T19:02:21;101183.38;;;19.77;100.00
53514;BME280;39768;54.148;12.174;2023-08-12T19:06:23;101190.56;;;20.32;100.00
53514;BME280;39768;54.148;12.174;2023-08-12T19:10:24;101202.97;;;20.63;96.70
53514;BME280;39768;54.148;12.174;2023-08-12T19:14:26;101200.19;;;20.50;97.10
53514;BME280;39768;54.148;12.174;2023-08-12T19:18:28;101199.34;;;19.96;100.00
53514;BME280;39768;54.148;12.174;2023-08-12T19:22:29;101209.88;;;20.27;100.00
53514;BME280;39768;54.148;12.174;2023-08-12T19:26:31;101196.34;;;20.40;98.56
53514;BME280;39768;54.148;12.174;2023-08-12T19:30:33;101185.44;;;20.27;100.00
53514;BME280;39768;54.148;12.174;2023-08-12T19:34:35;101187.53;;;20.37;98.63
53514;BME280;39768;54.148;12.174;2023-08-12T19:38:36;101184.88;;;19.81;100.00
53514;BME280;39768;54.148;12.174;2023-08-12T19:42:38;101188.06;;;20.02;100.00
53514;BME280;39768;54.148;12.174;2023-08-12T19:46:39;101194.16;;;19.22;100.00
53514;BME280;39768;54.148;12.174;2023-08-12T19:50:41;101200.00;;;20.00;100.00
53514;BME280;39768;54.148;12.174;2023-08-12T19:54:44;101201.22;;;19.67;100.00
53514;BME280;39768;54.148;12.174;2023-08-12T19:58:47;101191.09;;;19.42;100.00
53514;BME280;39768;54.148;12.174;2023-08-12T20:02:48;101195.91;;;19.51;100.00
53514;BME280;39768;54.148;12.174;2023-08-12T20:06:50;101200.56;;;19.35;100.00
53514;BME280;39768;54.148;12.174;2023-08-12T20:10:53;101194.03;;;19.66;100.00
53514;BME280;39768;54.148;12.174;2023-08-12T20:14:55;101203.09;;;19.24;100.00
53514;BME280;39768;54.148;12.174;2023-08-12T20:18:56;101201.50;;;19.20;100.00
53514;BME280;39768;54.148;12.174;2023-08-12T20:22:58;101197.19;;;19.17;100.00
53514;BME280;39768;54.148;12.174;2023-08-12T20:27:07;101203.16;;;19.65;100.00
53514;BME280;39768;54.148;12.174;2023-08-12T20:31:08;101196.53;;;19.98;100.00
53514;BME280;39768;54.148;12.174;2023-08-12T20:35:09;101198.72;;;20.32;100.00
53514;BME280;39768;54.148;12.174;2023-08-12T20:39:11;101200.50;;;20.58;100.00
53514;BME280;39768;54.148;12.174;2023-08-12T20:43:13;101207.69;;;20.59;100.00
53514;BME280;39768;54.148;12.174;2023-08-12T20:47:14;101211.78;;;20.67;100.00
53514;BME280;39768;54.148;12.174;2023-08-12T20:51:16;101216.56;;;20.36;100.00
53514;BME280;39768;54.148;12.174;2023-08-12T20:55:18;101225.72;;;20.48;100.00
53514;BME280;39768;54.148;12.174;2023-08-12T20:59:19;101227.31;;;20.38;100.00
53514;BME280;39768;54.148;12.174;2023-08-12T21:03:21;101240.06;;;20.37;100.00
53514;BME280;39768;54.148;12.174;2023-08-12T21:07:23;101239.44;;;20.19;100.00
53514;BME280;39768;54.148;12.174;2023-08-12T21:11:24;101236.88;;;20.30;100.00
53514;BME280;39768;54.148;12.174;2023-08-12T21:15:26;101238.81;;;20.28;100.00
53514;BME280;39768;54.148;12.174;2023-08-12T21:19:27;101245.84;;;20.18;100.00
53514;BME280;39768;54.148;12.174;2023-08-12T21:23:29;101241.53;;;20.02;100.00
53514;BME280;39768;54.148;12.174;2023-08-12T21:27:30;101244.84;;;19.64;100.00
53514;BME280;39768;54.148;12.174;2023-08-12T21:31:32;101269.97;;;19.53;100.00
53514;BME280;39768;54.148;12.174;2023-08-12T21:35:34;101289.28;;;19.63;100.00
53514;BME280;39768;54.148;12.174;2023-08-12T21:39:35;101296.44;;;19.50;100.00
53514;BME280;39768;54.148;12.174;2023-08-12T21:43:37;101316.72;;;19.14;100.00
53514;BME280;39768;54.148;12.174;2023-08-12T21:47:38;101325.53;;;18.74;100.00
53514;BME280;39768;54.148;12.174;2023-08-12T21:51:40;101326.66;;;18.70;100.00
53514;BME280;39768;54.148;12.174;2023-08-12T21:55:42;101320.34;;;18.85;100.00
53514;BME280;39768;54.148;12.174;2023-08-12T21:59:43;101331.13;;;18.71;100.00
53514;BME280;39768;54.148;12.174;2023-08-12T22:03:45;101327.47;;;19.02;100.00
53514;BME280;39768;54.148;12.174;2023-08-12T22:07:46;101329.56;;;18.97;100.00
53514;BME280;39768;54.148;12.174;2023-08-12T22:11:48;101327.56;;;18.54;100.00
53514;BME280;39768;54.148;12.174;2023-08-12T22:15:49;101346.94;;;18.47;100.00
53514;BME280;39768;54.148;12.174;2023-08-12T22:19:51;101340.22;;;18.38;100.00
53514;BME280;39768;54.148;12.174;2023-08-12T22:23:53;101341.72;;;18.60;100.00
53514;BME280;39768;54.148;12.174;2023-08-12T22:27:54;101336.00;;;18.17;100.00
53514;BME280;39768;54.148;12.174;2023-08-12T22:31:56;101338.38;;;18.39;100.00
53514;BME280;39768;54.148;12.174;2023-08-12T22:35:58;101346.28;;;18.59;100.00
53514;BME280;39768;54.148;12.174;2023-08-12T22:39:59;101352.28;;;18.33;100.00
53514;BME280;39768;54.148;12.174;2023-08-12T22:44:01;101354.09;;;18.48;100.00
53514;BME280;39768;54.148;12.174;2023-08-12T22:48:02;101352.47;;;18.61;100.00
53514;BME280;39768;54.148;12.174;2023-08-12T22:52:04;101359.19;;;18.70;100.00
53514;BME280;39768;54.148;12.174;2023-08-12T22:56:06;101366.28;;;18.72;100.00
53514;BME280;39768;54.148;12.174;2023-08-12T23:00:08;101366.97;;;18.44;100.00
53514;BME280;39768;54.148;12.174;2023-08-12T23:04:10;101378.06;;;18.40;100.00
53514;BME280;39768;54.148;12.174;2023-08-12T23:08:11;101376.25;;;18.40;100.00
53514;BME280;39768;54.148;12.174;2023-08-12T23:12:13;101380.44;;;18.62;100.00
53514;BME280;39768;54.148;12.174;2023-08-12T23:16:15;101374.75;;;18.35;100.00
53514;BME280;39768;54.148;12.174;2023-08-12T23:20:17;101382.03;;;18.01;100.00
53514;BME280;39768;54.148;12.174;2023-08-12T23:24:18;101387.47;;;18.01;100.00
53514;BME280;39768;54.148;12.174;2023-08-12T23:28:20;101386.59;;;18.16;100.00
53514;BME280;39768;54.148;12.174;2023-08-12T23:32:21;101396.03;;;17.94;100.00
53514;BME280;39768;54.148;12.174;2023-08-12T23:36:23;101407.25;;;18.19;100.00
53514;BME280;39768;54.148;12.174;2023-08-12T23:40:25;101402.22;;;17.96;100.00
53514;BME280;39768;54.148;12.174;2023-08-12T23:44:26;101407.59;;;18.13;100.00
53514;BME280;39768;54.148;12.174;2023-08-12T23:48:28;101396.53;;;18.00;100.00
53514;BME280;39768;54.148;12.174;2023-08-12T23:52:30;101396.34;;;17.88;100.00
53514;BME280;39768;54.148;12.174;2023-08-12T23:56:31;101391.13;;;17.84;100.00
